This is the latest recevied weather packets stored in our database for station/object DL9TK-10. If no packets are shown the sender has not sent any weather packets the latest 10 day(s).
| Time | Temp. | Humidity | Pressure | Rain* | Wind** | Luminosity | Snow |
|---|---|---|---|---|---|---|---|
| 1778288338 | 11.11° C | 41% | 1022.4 hPa | - | - | - | - |
| 1778287438 | 11.67° C | 41% | 1022.3 hPa | - | - | - | - |
| 1778286538 | 11.67° C | 41% | 1022.5 hPa | - | - | - | - |
| 1778285638 | 12.22° C | 40% | 1022.4 hPa | - | - | - | - |
| 1778284738 | 12.78° C | 39% | 1022.4 hPa | - | - | - | - |
| 1778283838 | 12.22° C | 40% | 1022.6 hPa | - | - | - | - |
| 1778282938 | 12.78° C | 40% | 1022.5 hPa | - | - | - | - |
| 1778282038 | 12.22° C | 40% | 1022.6 hPa | - | - | - | - |
| 1778281138 | 12.78° C | 40% | 1022.5 hPa | - | - | - | - |
| 1778280238 | 12.78° C | 40% | 1022.6 hPa | - | - | - | - |
| 1778279338 | 13.33° C | 40% | 1022.6 hPa | - | - | - | - |
| 1778278438 | 13.33° C | 41% | 1022.7 hPa | - | - | - | - |
| 1778277538 | 13.33° C | 41% | 1022.5 hPa | - | - | - | - |
| 1778276637 | 13.89° C | 40% | 1022.5 hPa | - | - | - | - |
| 1778275737 | 13.89° C | 41% | 1022.5 hPa | - | - | - | - |
| 1778274837 | 13.89° C | 41% | 1022.4 hPa | - | - | - | - |
| 1778273937 | 13.89° C | 41% | 1022.3 hPa | - | - | - | - |
| 1778273037 | 14.44° C | 41% | 1022.3 hPa | - | - | - | - |
| 1778272137 | 14.44° C | 41% | 1022.2 hPa | - | - | - | - |
| 1778271237 | 15° C | 40% | 1022 hPa | - | - | - | - |
| 1778270337 | 15° C | 40% | 1022 hPa | - | - | - | - |
| 1778269437 | 15.56° C | 38% | 1022 hPa | - | - | - | - |
| 1778268537 | 16.11° C | 37% | 1021.9 hPa | - | - | - | - |
| 1778267637 | 16.67° C | 36% | 1021.6 hPa | - | - | - | - |
| 1778266737 | 17.22° C | 35% | 1021.5 hPa | - | - | - | - |
* Rain since midnight (hover to see other rain measurements)
** Current wind speed in m/s (hover to see current wind gust speed)